sensor_id;sensor_type;location;lat;lon;timestamp;temperature;humidity
13798;DHT22;6970;51.340;3.240;2023-05-18T00:00:14;11.20;99.90
13798;DHT22;6970;51.340;3.240;2023-05-18T00:02:45;11.20;99.90
13798;DHT22;6970;51.340;3.240;2023-05-18T00:05:15;11.10;99.90
13798;DHT22;6970;51.340;3.240;2023-05-18T00:07:49;11.10;99.90
13798;DHT22;6970;51.340;3.240;2023-05-18T00:10:19;11.10;99.90
13798;DHT22;6970;51.340;3.240;2023-05-18T00:12:48;11.10;99.90
13798;DHT22;6970;51.340;3.240;2023-05-18T00:15:17;11.00;99.90
13798;DHT22;6970;51.340;3.240;2023-05-18T00:17:47;11.00;99.90
13798;DHT22;6970;51.340;3.240;2023-05-18T00:20:16;11.00;99.90
13798;DHT22;6970;51.340;3.240;2023-05-18T00:22:52;11.00;99.90
13798;DHT22;6970;51.340;3.240;2023-05-18T00:25:20;11.00;99.90
13798;DHT22;6970;51.340;3.240;2023-05-18T00:27:53;10.90;99.90
13798;DHT22;6970;51.340;3.240;2023-05-18T00:30:22;10.90;99.90
13798;DHT22;6970;51.340;3.240;2023-05-18T00:32:54;10.90;99.90
13798;DHT22;6970;51.340;3.240;2023-05-18T00:35:23;10.90;99.90
13798;DHT22;6970;51.340;3.240;2023-05-18T00:37:51;10.90;99.90
13798;DHT22;6970;51.340;3.240;2023-05-18T00:40:20;10.90;99.90
13798;DHT22;6970;51.340;3.240;2023-05-18T00:42:51;10.90;99.90
13798;DHT22;6970;51.340;3.240;2023-05-18T00:45:18;10.90;99.90
13798;DHT22;6970;51.340;3.240;2023-05-18T00:47:49;10.90;99.90
13798;DHT22;6970;51.340;3.240;2023-05-18T00:50:22;10.90;99.90
13798;DHT22;6970;51.340;3.240;2023-05-18T00:52:50;10.80;99.90
13798;DHT22;6970;51.340;3.240;2023-05-18T00:55:20;10.80;99.90
13798;DHT22;6970;51.340;3.240;2023-05-18T00:57:50;10.80;99.90
13798;DHT22;6970;51.340;3.240;2023-05-18T01:00:20;10.80;99.90
13798;DHT22;6970;51.340;3.240;2023-05-18T01:02:51;10.80;99.90
13798;DHT22;6970;51.340;3.240;2023-05-18T01:05:24;10.80;99.90
13798;DHT22;6970;51.340;3.240;2023-05-18T01:07:55;10.80;99.90
13798;DHT22;6970;51.340;3.240;2023-05-18T01:10:25;10.80;99.90
13798;DHT22;6970;51.340;3.240;2023-05-18T01:15:47;10.80;99.90
13798;DHT22;6970;51.340;3.240;2023-05-18T01:18:24;10.80;99.90
13798;DHT22;6970;51.340;3.240;2023-05-18T01:21:08;10.80;99.90
13798;DHT22;6970;51.340;3.240;2023-05-18T01:26:54;10.70;99.90
13798;DHT22;6970;51.340;3.240;2023-05-18T01:29:25;10.70;99.90
13798;DHT22;6970;51.340;3.240;2023-05-18T01:31:56;10.60;99.90
13798;DHT22;6970;51.340;3.240;2023-05-18T01:34:24;10.60;99.90
13798;DHT22;6970;51.340;3.240;2023-05-18T01:36:53;10.60;99.90
13798;DHT22;6970;51.340;3.240;2023-05-18T01:39:20;10.50;99.90
13798;DHT22;6970;51.340;3.240;2023-05-18T01:42:02;10.50;99.90
13798;DHT22;6970;51.340;3.240;2023-05-18T01:44:44;10.50;99.90
13798;DHT22;6970;51.340;3.240;2023-05-18T01:47:17;10.50;99.90
13798;DHT22;6970;51.340;3.240;2023-05-18T01:52:22;10.40;99.90
13798;DHT22;6970;51.340;3.240;2023-05-18T01:54:53;10.40;99.90
13798;DHT22;6970;51.340;3.240;2023-05-18T01:57:26;10.40;99.90
13798;DHT22;6970;51.340;3.240;2023-05-18T01:59:53;10.30;99.90
13798;DHT22;6970;51.340;3.240;2023-05-18T02:02:24;10.30;99.90
13798;DHT22;6970;51.340;3.240;2023-05-18T02:04:55;10.30;99.90
13798;DHT22;6970;51.340;3.240;2023-05-18T02:07:23;10.30;99.90
13798;DHT22;6970;51.340;3.240;2023-05-18T02:09:53;10.30;99.90
13798;DHT22;6970;51.340;3.240;2023-05-18T02:12:22;10.20;99.90
13798;DHT22;6970;51.340;3.240;2023-05-18T02:14:51;10.20;99.90
13798;DHT22;6970;51.340;3.240;2023-05-18T02:17:21;10.20;99.90
13798;DHT22;6970;51.340;3.240;2023-05-18T02:19:54;10.20;99.90
13798;DHT22;6970;51.340;3.240;2023-05-18T02:22:23;10.20;99.90
13798;DHT22;6970;51.340;3.240;2023-05-18T02:24:52;10.20;99.90
13798;DHT22;6970;51.340;3.240;2023-05-18T02:27:21;10.20;99.90
13798;DHT22;6970;51.340;3.240;2023-05-18T02:29:48;10.20;99.90
13798;DHT22;6970;51.340;3.240;2023-05-18T02:32:15;10.10;99.90
13798;DHT22;6970;51.340;3.240;2023-05-18T02:34:43;10.10;99.90
13798;DHT22;6970;51.340;3.240;2023-05-18T02:37:12;10.10;99.90
13798;DHT22;6970;51.340;3.240;2023-05-18T02:39:42;10.10;99.90
13798;DHT22;6970;51.340;3.240;2023-05-18T02:42:12;10.10;99.90
13798;DHT22;6970;51.340;3.240;2023-05-18T02:44:39;10.10;99.90
13798;DHT22;6970;51.340;3.240;2023-05-18T02:47:09;10.00;99.90
13798;DHT22;6970;51.340;3.240;2023-05-18T02:49:40;10.00;99.90
13798;DHT22;6970;51.340;3.240;2023-05-18T02:52:10;10.10;99.90
13798;DHT22;6970;51.340;3.240;2023-05-18T02:54:40;10.00;99.90
13798;DHT22;6970;51.340;3.240;2023-05-18T02:57:09;10.00;99.90
13798;DHT22;6970;51.340;3.240;2023-05-18T02:59:39;10.00;99.90
13798;DHT22;6970;51.340;3.240;2023-05-18T03:02:08;10.00;99.90
13798;DHT22;6970;51.340;3.240;2023-05-18T03:04:37;10.00;99.90
13798;DHT22;6970;51.340;3.240;2023-05-18T03:07:05;10.00;99.90
13798;DHT22;6970;51.340;3.240;2023-05-18T03:09:36;9.90;99.90
13798;DHT22;6970;51.340;3.240;2023-05-18T03:12:07;9.90;99.90
13798;DHT22;6970;51.340;3.240;2023-05-18T03:14:35;9.90;99.90
13798;DHT22;6970;51.340;3.240;2023-05-18T03:17:05;9.90;99.90
13798;DHT22;6970;51.340;3.240;2023-05-18T03:19:34;9.90;99.90
13798;DHT22;6970;51.340;3.240;2023-05-18T03:22:04;9.90;99.90
13798;DHT22;6970;51.340;3.240;2023-05-18T03:24:34;9.90;99.90
13798;DHT22;6970;51.340;3.240;2023-05-18T03:27:06;9.80;99.90
13798;DHT22;6970;51.340;3.240;2023-05-18T03:29:37;9.80;99.90
13798;DHT22;6970;51.340;3.240;2023-05-18T03:32:05;9.80;99.90
13798;DHT22;6970;51.340;3.240;2023-05-18T03:34:34;9.80;99.90
13798;DHT22;6970;51.340;3.240;2023-05-18T03:37:06;9.70;99.90
13798;DHT22;6970;51.340;3.240;2023-05-18T03:39:39;9.70;99.90
13798;DHT22;6970;51.340;3.240;2023-05-18T03:42:06;9.70;99.90
13798;DHT22;6970;51.340;3.240;2023-05-18T03:44:35;9.70;99.90
13798;DHT22;6970;51.340;3.240;2023-05-18T03:47:05;9.70;99.90
13798;DHT22;6970;51.340;3.240;2023-05-18T03:49:36;9.70;99.90
13798;DHT22;6970;51.340;3.240;2023-05-18T03:52:03;9.70;99.90
13798;DHT22;6970;51.340;3.240;2023-05-18T03:54:32;9.70;99.90
13798;DHT22;6970;51.340;3.240;2023-05-18T03:57:00;9.60;99.90
13798;DHT22;6970;51.340;3.240;2023-05-18T03:59:27;9.60;99.90
13798;DHT22;6970;51.340;3.240;2023-05-18T04:01:55;9.70;99.90
13798;DHT22;6970;51.340;3.240;2023-05-18T04:04:22;9.70;99.90
13798;DHT22;6970;51.340;3.240;2023-05-18T04:06:49;9.70;99.90
13798;DHT22;6970;51.340;3.240;2023-05-18T04:09:19;9.70;99.90
13798;DHT22;6970;51.340;3.240;2023-05-18T04:11:52;9.70;99.90
13798;DHT22;6970;51.340;3.240;2023-05-18T04:14:20;9.70;99.90
13798;DHT22;6970;51.340;3.240;2023-05-18T04:16:53;9.80;99.90
13798;DHT22;6970;51.340;3.240;2023-05-18T04:19:23;9.80;99.90
13798;DHT22;6970;51.340;3.240;2023-05-18T04:21:53;9.80;99.90
13798;DHT22;6970;51.340;3.240;2023-05-18T04:24:26;9.90;99.90
13798;DHT22;6970;51.340;3.240;2023-05-18T04:26:55;9.90;99.90
13798;DHT22;6970;51.340;3.240;2023-05-18T04:29:27;9.90;99.90
13798;DHT22;6970;51.340;3.240;2023-05-18T04:31:57;9.90;99.90
13798;DHT22;6970;51.340;3.240;2023-05-18T04:34:28;9.90;99.90
13798;DHT22;6970;51.340;3.240;2023-05-18T04:36:56;9.90;99.90
13798;DHT22;6970;51.340;3.240;2023-05-18T04:39:27;9.90;99.90
13798;DHT22;6970;51.340;3.240;2023-05-18T04:41:58;9.90;99.90
13798;DHT22;6970;51.340;3.240;2023-05-18T04:44:29;9.90;99.90
13798;DHT22;6970;51.340;3.240;2023-05-18T04:47:03;10.00;99.90
13798;DHT22;6970;51.340;3.240;2023-05-18T04:49:32;10.00;99.90
13798;DHT22;6970;51.340;3.240;2023-05-18T04:51:59;10.10;99.90
13798;DHT22;6970;51.340;3.240;2023-05-18T04:54:29;10.10;99.90
13798;DHT22;6970;51.340;3.240;2023-05-18T04:57:00;10.20;99.90
13798;DHT22;6970;51.340;3.240;2023-05-18T04:59:30;10.20;99.90
13798;DHT22;6970;51.340;3.240;2023-05-18T05:01:57;10.20;99.90
13798;DHT22;6970;51.340;3.240;2023-05-18T05:04:24;10.30;99.90
13798;DHT22;6970;51.340;3.240;2023-05-18T05:06:51;10.30;99.90
13798;DHT22;6970;51.340;3.240;2023-05-18T05:09:20;10.40;99.90
13798;DHT22;6970;51.340;3.240;2023-05-18T05:11:50;10.40;99.90
13798;DHT22;6970;51.340;3.240;2023-05-18T05:14:18;10.40;99.90
13798;DHT22;6970;51.340;3.240;2023-05-18T05:16:46;10.40;99.90
13798;DHT22;6970;51.340;3.240;2023-05-18T05:19:15;10.40;99.90
13798;DHT22;6970;51.340;3.240;2023-05-18T05:21:42;10.40;99.90
13798;DHT22;6970;51.340;3.240;2023-05-18T05:24:10;10.40;99.90
13798;DHT22;6970;51.340;3.240;2023-05-18T05:26:37;10.40;99.90
13798;DHT22;6970;51.340;3.240;2023-05-18T05:29:07;10.40;99.90
13798;DHT22;6970;51.340;3.240;2023-05-18T05:31:34;10.50;99.90
13798;DHT22;6970;51.340;3.240;2023-05-18T05:34:02;10.50;99.90
13798;DHT22;6970;51.340;3.240;2023-05-18T05:36:35;10.50;99.90
13798;DHT22;6970;51.340;3.240;2023-05-18T05:39:08;10.50;99.90
13798;DHT22;6970;51.340;3.240;2023-05-18T05:41:38;10.50;99.90
13798;DHT22;6970;51.340;3.240;2023-05-18T05:44:09;10.50;99.90
13798;DHT22;6970;51.340;3.240;2023-05-18T05:46:39;10.50;99.90
13798;DHT22;6970;51.340;3.240;2023-05-18T05:49:09;10.50;99.90
13798;DHT22;6970;51.340;3.240;2023-05-18T05:51:38;10.60;99.90
13798;DHT22;6970;51.340;3.240;2023-05-18T05:54:08;10.60;99.90
13798;DHT22;6970;51.340;3.240;2023-05-18T05:56:39;10.70;99.90
13798;DHT22;6970;51.340;3.240;2023-05-18T05:59:08;10.80;99.90
13798;DHT22;6970;51.340;3.240;2023-05-18T06:01:37;10.80;99.90
13798;DHT22;6970;51.340;3.240;2023-05-18T06:04:04;10.90;99.90
13798;DHT22;6970;51.340;3.240;2023-05-18T06:06:39;10.90;99.90
13798;DHT22;6970;51.340;3.240;2023-05-18T06:09:09;11.00;99.90
13798;DHT22;6970;51.340;3.240;2023-05-18T06:11:42;11.00;99.90
13798;DHT22;6970;51.340;3.240;2023-05-18T06:14:11;11.10;99.90
13798;DHT22;6970;51.340;3.240;2023-05-18T06:16:39;11.10;99.90
13798;DHT22;6970;51.340;3.240;2023-05-18T06:19:10;11.10;99.90
13798;DHT22;6970;51.340;3.240;2023-05-18T06:21:37;11.20;99.90
13798;DHT22;6970;51.340;3.240;2023-05-18T06:24:05;11.20;99.90
13798;DHT22;6970;51.340;3.240;2023-05-18T06:26:36;11.30;99.90
13798;DHT22;6970;51.340;3.240;2023-05-18T06:29:04;11.30;99.90
13798;DHT22;6970;51.340;3.240;2023-05-18T06:31:31;11.40;99.90
13798;DHT22;6970;51.340;3.240;2023-05-18T06:34:01;11.50;99.90
13798;DHT22;6970;51.340;3.240;2023-05-18T06:36:28;11.60;99.90
13798;DHT22;6970;51.340;3.240;2023-05-18T06:38:59;11.80;99.90
13798;DHT22;6970;51.340;3.240;2023-05-18T06:41:26;12.00;99.90
13798;DHT22;6970;51.340;3.240;2023-05-18T06:43:53;12.10;99.90
13798;DHT22;6970;51.340;3.240;2023-05-18T06:46:23;12.30;99.90
13798;DHT22;6970;51.340;3.240;2023-05-18T06:48:52;12.50;99.90
13798;DHT22;6970;51.340;3.240;2023-05-18T06:51:23;12.60;99.90
13798;DHT22;6970;51.340;3.240;2023-05-18T06:53:51;12.50;99.90
13798;DHT22;6970;51.340;3.240;2023-05-18T06:56:21;12.60;99.90
13798;DHT22;6970;51.340;3.240;2023-05-18T06:58:52;12.70;99.90
13798;DHT22;6970;51.340;3.240;2023-05-18T07:01:20;12.90;99.90
13798;DHT22;6970;51.340;3.240;2023-05-18T07:03:48;13.00;99.90
13798;DHT22;6970;51.340;3.240;2023-05-18T07:06:15;13.10;99.90
13798;DHT22;6970;51.340;3.240;2023-05-18T07:08:45;13.20;99.90
13798;DHT22;6970;51.340;3.240;2023-05-18T07:11:14;13.40;99.90
13798;DHT22;6970;51.340;3.240;2023-05-18T07:13:42;13.60;99.90
13798;DHT22;6970;51.340;3.240;2023-05-18T07:16:10;13.80;99.90
13798;DHT22;6970;51.340;3.240;2023-05-18T07:18:37;14.10;99.90
13798;DHT22;6970;51.340;3.240;2023-05-18T07:21:04;14.30;99.90
13798;DHT22;6970;51.340;3.240;2023-05-18T07:23:31;14.50;99.70
13798;DHT22;6970;51.340;3.240;2023-05-18T07:26:00;14.70;99.70
13798;DHT22;6970;51.340;3.240;2023-05-18T07:28:28;14.90;99.70
13798;DHT22;6970;51.340;3.240;2023-05-18T07:30:55;15.10;99.20
13798;DHT22;6970;51.340;3.240;2023-05-18T07:33:28;15.20;98.70
13798;DHT22;6970;51.340;3.240;2023-05-18T07:35:55;15.20;98.30
13798;DHT22;6970;51.340;3.240;2023-05-18T07:38:25;15.10;98.00
13798;DHT22;6970;51.340;3.240;2023-05-18T07:40:55;15.00;97.90
13798;DHT22;6970;51.340;3.240;2023-05-18T07:43:22;15.00;98.00
13798;DHT22;6970;51.340;3.240;2023-05-18T07:45:51;14.80;97.60
13798;DHT22;6970;51.340;3.240;2023-05-18T07:48:18;14.90;97.80
13798;DHT22;6970;51.340;3.240;2023-05-18T07:50:45;15.00;98.00
13798;DHT22;6970;51.340;3.240;2023-05-18T07:53:15;15.20;97.90
13798;DHT22;6970;51.340;3.240;2023-05-18T07:55:44;15.40;97.70
13798;DHT22;6970;51.340;3.240;2023-05-18T07:58:15;15.70;97.40
13798;DHT22;6970;51.340;3.240;2023-05-18T08:00:45;15.90;96.70
13798;DHT22;6970;51.340;3.240;2023-05-18T08:03:15;15.90;96.10
13798;DHT22;6970;51.340;3.240;2023-05-18T08:05:43;16.00;96.20
13798;DHT22;6970;51.340;3.240;2023-05-18T08:08:13;16.00;95.90
13798;DHT22;6970;51.340;3.240;2023-05-18T08:10:44;16.00;96.20
13798;DHT22;6970;51.340;3.240;2023-05-18T08:13:13;16.10;96.00
13798;DHT22;6970;51.340;3.240;2023-05-18T08:15:43;16.20;95.90
13798;DHT22;6970;51.340;3.240;2023-05-18T08:18:10;16.40;95.70
13798;DHT22;6970;51.340;3.240;2023-05-18T08:20:38;16.60;95.80
13798;DHT22;6970;51.340;3.240;2023-05-18T08:23:06;16.90;95.80
13798;DHT22;6970;51.340;3.240;2023-05-18T08:25:34;17.20;95.00
13798;DHT22;6970;51.340;3.240;2023-05-18T08:28:04;17.30;94.90
13798;DHT22;6970;51.340;3.240;2023-05-18T08:30:34;17.50;94.50
13798;DHT22;6970;51.340;3.240;2023-05-18T08:33:03;17.70;94.50
13798;DHT22;6970;51.340;3.240;2023-05-18T08:35:33;17.80;93.70
13798;DHT22;6970;51.340;3.240;2023-05-18T08:38:01;17.90;93.60
13798;DHT22;6970;51.340;3.240;2023-05-18T08:40:46;18.10;93.60
13798;DHT22;6970;51.340;3.240;2023-05-18T08:43:20;18.30;92.60
13798;DHT22;6970;51.340;3.240;2023-05-18T08:46:04;18.40;92.60
13798;DHT22;6970;51.340;3.240;2023-05-18T08:48:35;18.50;92.40
13798;DHT22;6970;51.340;3.240;2023-05-18T08:51:05;18.60;92.10
13798;DHT22;6970;51.340;3.240;2023-05-18T08:53:35;18.70;92.30
13798;DHT22;6970;51.340;3.240;2023-05-18T08:56:03;18.90;91.80
13798;DHT22;6970;51.340;3.240;2023-05-18T08:58:43;19.00;91.50
13798;DHT22;6970;51.340;3.240;2023-05-18T09:01:10;19.00;91.20
13798;DHT22;6970;51.340;3.240;2023-05-18T09:03:40;18.90;91.00
13798;DHT22;6970;51.340;3.240;2023-05-18T09:06:11;18.90;90.90
13798;DHT22;6970;51.340;3.240;2023-05-18T09:08:41;18.80;91.10
13798;DHT22;6970;51.340;3.240;2023-05-18T09:11:12;18.70;91.10
13798;DHT22;6970;51.340;3.240;2023-05-18T09:13:41;18.60;91.10
13798;DHT22;6970;51.340;3.240;2023-05-18T09:16:13;18.50;91.30
13798;DHT22;6970;51.340;3.240;2023-05-18T09:18:40;18.60;91.90
13798;DHT22;6970;51.340;3.240;2023-05-18T09:21:07;18.70;91.70
13798;DHT22;6970;51.340;3.240;2023-05-18T09:23:38;18.90;91.40
13798;DHT22;6970;51.340;3.240;2023-05-18T09:26:08;19.00;91.30
13798;DHT22;6970;51.340;3.240;2023-05-18T09:28:40;19.10;90.60
13798;DHT22;6970;51.340;3.240;2023-05-18T09:31:20;18.80;90.50
13798;DHT22;6970;51.340;3.240;2023-05-18T09:33:49;18.50;91.30
13798;DHT22;6970;51.340;3.240;2023-05-18T09:36:27;18.20;92.20
13798;DHT22;6970;51.340;3.240;2023-05-18T09:39:06;17.90;92.30
13798;DHT22;6970;51.340;3.240;2023-05-18T09:41:38;17.70;92.20
13798;DHT22;6970;51.340;3.240;2023-05-18T09:44:07;17.50;92.60
13798;DHT22;6970;51.340;3.240;2023-05-18T09:46:39;17.60;92.90
13798;DHT22;6970;51.340;3.240;2023-05-18T09:49:06;17.80;93.10
13798;DHT22;6970;51.340;3.240;2023-05-18T09:51:37;18.20;92.50
13798;DHT22;6970;51.340;3.240;2023-05-18T09:54:07;18.70;92.70
13798;DHT22;6970;51.340;3.240;2023-05-18T09:56:44;19.20;92.10
13798;DHT22;6970;51.340;3.240;2023-05-18T09:59:34;19.60;91.00
13798;DHT22;6970;51.340;3.240;2023-05-18T10:02:11;20.00;91.00
13798;DHT22;6970;51.340;3.240;2023-05-18T10:04:41;20.40;90.60
13798;DHT22;6970;51.340;3.240;2023-05-18T10:07:15;20.60;90.00
13798;DHT22;6970;51.340;3.240;2023-05-18T10:09:44;20.80;88.50
13798;DHT22;6970;51.340;3.240;2023-05-18T10:12:14;20.90;86.90
13798;DHT22;6970;51.340;3.240;2023-05-18T10:14:45;21.00;86.60
13798;DHT22;6970;51.340;3.240;2023-05-18T10:17:15;21.20;87.30
13798;DHT22;6970;51.340;3.240;2023-05-18T10:19:46;21.20;84.30
13798;DHT22;6970;51.340;3.240;2023-05-18T10:22:19;21.30;85.30
13798;DHT22;6970;51.340;3.240;2023-05-18T10:24:52;21.40;84.90
13798;DHT22;6970;51.340;3.240;2023-05-18T10:27:26;21.40;84.60
13798;DHT22;6970;51.340;3.240;2023-05-18T10:30:06;21.70;84.30
13798;DHT22;6970;51.340;3.240;2023-05-18T10:32:35;21.90;84.80
13798;DHT22;6970;51.340;3.240;2023-05-18T10:35:07;21.90;82.90
13798;DHT22;6970;51.340;3.240;2023-05-18T10:37:38;22.10;82.80
13798;DHT22;6970;51.340;3.240;2023-05-18T10:40:07;22.20;83.20
13798;DHT22;6970;51.340;3.240;2023-05-18T10:42:39;22.30;81.60
13798;DHT22;6970;51.340;3.240;2023-05-18T10:45:10;22.30;81.00
13798;DHT22;6970;51.340;3.240;2023-05-18T10:47:41;22.30;81.60
13798;DHT22;6970;51.340;3.240;2023-05-18T10:50:10;22.30;81.70
13798;DHT22;6970;51.340;3.240;2023-05-18T10:52:40;22.30;81.00
13798;DHT22;6970;51.340;3.240;2023-05-18T10:55:09;22.30;80.10
13798;DHT22;6970;51.340;3.240;2023-05-18T10:57:51;22.30;80.80
13798;DHT22;6970;51.340;3.240;2023-05-18T11:00:22;22.20;79.40
13798;DHT22;6970;51.340;3.240;2023-05-18T11:02:52;22.30;79.20
13798;DHT22;6970;51.340;3.240;2023-05-18T11:05:24;22.30;78.80
13798;DHT22;6970;51.340;3.240;2023-05-18T11:08:01;22.40;78.90
13798;DHT22;6970;51.340;3.240;2023-05-18T11:10:40;22.60;78.40
13798;DHT22;6970;51.340;3.240;2023-05-18T11:13:11;22.70;79.00
13798;DHT22;6970;51.340;3.240;2023-05-18T11:18:47;22.80;78.80
13798;DHT22;6970;51.340;3.240;2023-05-18T11:21:29;22.80;77.90
13798;DHT22;6970;51.340;3.240;2023-05-18T11:27:15;22.50;78.00
13798;DHT22;6970;51.340;3.240;2023-05-18T11:29:44;22.70;78.70
13798;DHT22;6970;51.340;3.240;2023-05-18T11:32:28;22.70;77.40
13798;DHT22;6970;51.340;3.240;2023-05-18T11:35:00;22.80;77.00
13798;DHT22;6970;51.340;3.240;2023-05-18T11:40:08;22.60;76.60
13798;DHT22;6970;51.340;3.240;2023-05-18T11:42:37;22.60;76.80
13798;DHT22;6970;51.340;3.240;2023-05-18T11:45:16;22.60;77.40
13798;DHT22;6970;51.340;3.240;2023-05-18T11:47:46;22.80;77.10
13798;DHT22;6970;51.340;3.240;2023-05-18T11:50:16;22.90;77.80
13798;DHT22;6970;51.340;3.240;2023-05-18T11:52:52;22.90;76.70
13798;DHT22;6970;51.340;3.240;2023-05-18T11:55:36;23.00;76.30
13798;DHT22;6970;51.340;3.240;2023-05-18T11:58:06;23.00;75.80
13798;DHT22;6970;51.340;3.240;2023-05-18T12:00:37;22.90;75.70
13798;DHT22;6970;51.340;3.240;2023-05-18T12:03:05;22.80;76.50
13798;DHT22;6970;51.340;3.240;2023-05-18T12:05:34;22.80;76.30
13798;DHT22;6970;51.340;3.240;2023-05-18T12:08:02;22.70;75.20
13798;DHT22;6970;51.340;3.240;2023-05-18T12:10:30;22.60;75.80
13798;DHT22;6970;51.340;3.240;2023-05-18T12:12:58;22.60;77.00
13798;DHT22;6970;51.340;3.240;2023-05-18T12:15:27;22.70;77.00
13798;DHT22;6970;51.340;3.240;2023-05-18T12:17:57;22.50;78.50
13798;DHT22;6970;51.340;3.240;2023-05-18T12:20:25;22.50;79.20
13798;DHT22;6970;51.340;3.240;2023-05-18T12:22:59;22.40;79.60
13798;DHT22;6970;51.340;3.240;2023-05-18T12:25:27;22.30;80.80
13798;DHT22;6970;51.340;3.240;2023-05-18T12:27:55;22.20;81.10
13798;DHT22;6970;51.340;3.240;2023-05-18T12:30:28;22.00;81.10
13798;DHT22;6970;51.340;3.240;2023-05-18T12:33:02;22.00;81.50
13798;DHT22;6970;51.340;3.240;2023-05-18T12:35:30;22.00;82.00
13798;DHT22;6970;51.340;3.240;2023-05-18T12:38:00;21.60;82.20
13798;DHT22;6970;51.340;3.240;2023-05-18T12:40:36;21.50;83.10
13798;DHT22;6970;51.340;3.240;2023-05-18T12:43:11;21.30;84.70
13798;DHT22;6970;51.340;3.240;2023-05-18T12:45:45;21.20;84.20
13798;DHT22;6970;51.340;3.240;2023-05-18T12:48:14;21.20;84.30
13798;DHT22;6970;51.340;3.240;2023-05-18T12:50:46;21.20;84.20
13798;DHT22;6970;51.340;3.240;2023-05-18T12:53:16;21.20;84.60
13798;DHT22;6970;51.340;3.240;2023-05-18T12:55:44;21.20;85.00
13798;DHT22;6970;51.340;3.240;2023-05-18T12:58:15;21.20;84.30
13798;DHT22;6970;51.340;3.240;2023-05-18T13:00:46;21.20;84.70
13798;DHT22;6970;51.340;3.240;2023-05-18T13:03:15;21.20;85.00
13798;DHT22;6970;51.340;3.240;2023-05-18T13:06:03;21.10;84.80
13798;DHT22;6970;51.340;3.240;2023-05-18T13:08:33;21.00;85.10
13798;DHT22;6970;51.340;3.240;2023-05-18T13:11:05;20.90;85.40
13798;DHT22;6970;51.340;3.240;2023-05-18T13:14:00;20.90;85.60
13798;DHT22;6970;51.340;3.240;2023-05-18T13:16:28;20.90;85.10
13798;DHT22;6970;51.340;3.240;2023-05-18T13:19:00;20.90;85.70
13798;DHT22;6970;51.340;3.240;2023-05-18T13:21:36;20.70;85.50
13798;DHT22;6970;51.340;3.240;2023-05-18T13:24:05;20.50;86.90
13798;DHT22;6970;51.340;3.240;2023-05-18T13:26:36;20.50;87.10
13798;DHT22;6970;51.340;3.240;2023-05-18T13:29:04;20.40;87.30
13798;DHT22;6970;51.340;3.240;2023-05-18T13:31:36;20.40;87.10
13798;DHT22;6970;51.340;3.240;2023-05-18T13:34:06;20.20;87.40
13798;DHT22;6970;51.340;3.240;2023-05-18T13:36:36;20.10;87.50
13798;DHT22;6970;51.340;3.240;2023-05-18T13:39:04;20.00;88.40
13798;DHT22;6970;51.340;3.240;2023-05-18T13:41:36;20.00;88.10
13798;DHT22;6970;51.340;3.240;2023-05-18T13:44:03;19.90;87.60
13798;DHT22;6970;51.340;3.240;2023-05-18T13:46:30;19.80;88.40
13798;DHT22;6970;51.340;3.240;2023-05-18T13:48:58;19.70;89.80
13798;DHT22;6970;51.340;3.240;2023-05-18T13:51:25;19.70;89.60
13798;DHT22;6970;51.340;3.240;2023-05-18T13:53:52;19.70;89.20
13798;DHT22;6970;51.340;3.240;2023-05-18T13:56:19;19.60;90.00
13798;DHT22;6970;51.340;3.240;2023-05-18T13:58:48;19.60;90.20
13798;DHT22;6970;51.340;3.240;2023-05-18T14:01:16;19.60;90.10
13798;DHT22;6970;51.340;3.240;2023-05-18T14:03:44;19.60;89.70
13798;DHT22;6970;51.340;3.240;2023-05-18T14:06:15;19.60;89.40
13798;DHT22;6970;51.340;3.240;2023-05-18T14:08:44;19.50;90.00
13798;DHT22;6970;51.340;3.240;2023-05-18T14:11:11;19.50;90.00
13798;DHT22;6970;51.340;3.240;2023-05-18T14:13:38;19.50;90.30
13798;DHT22;6970;51.340;3.240;2023-05-18T14:16:05;19.40;90.20
13798;DHT22;6970;51.340;3.240;2023-05-18T14:18:33;19.40;90.30
13798;DHT22;6970;51.340;3.240;2023-05-18T14:21:02;19.20;90.20
13798;DHT22;6970;51.340;3.240;2023-05-18T14:23:30;19.10;90.60
13798;DHT22;6970;51.340;3.240;2023-05-18T14:26:00;19.20;90.30
13798;DHT22;6970;51.340;3.240;2023-05-18T14:28:27;19.00;90.50
13798;DHT22;6970;51.340;3.240;2023-05-18T14:30:59;18.90;91.10
13798;DHT22;6970;51.340;3.240;2023-05-18T14:33:29;18.80;91.40
13798;DHT22;6970;51.340;3.240;2023-05-18T14:35:58;18.70;91.20
13798;DHT22;6970;51.340;3.240;2023-05-18T14:38:29;18.60;91.30
13798;DHT22;6970;51.340;3.240;2023-05-18T14:40:59;18.50;91.40
13798;DHT22;6970;51.340;3.240;2023-05-18T14:43:29;18.40;91.70
13798;DHT22;6970;51.340;3.240;2023-05-18T14:45:59;18.30;91.80
13798;DHT22;6970;51.340;3.240;2023-05-18T14:48:37;18.10;91.90
13798;DHT22;6970;51.340;3.240;2023-05-18T14:51:07;18.10;92.00
13798;DHT22;6970;51.340;3.240;2023-05-18T14:53:38;18.10;91.90
13798;DHT22;6970;51.340;3.240;2023-05-18T14:56:11;18.00;92.40
13798;DHT22;6970;51.340;3.240;2023-05-18T14:58:41;18.00;92.70
13798;DHT22;6970;51.340;3.240;2023-05-18T15:01:09;18.00;92.20
13798;DHT22;6970;51.340;3.240;2023-05-18T15:03:38;17.90;92.40
13798;DHT22;6970;51.340;3.240;2023-05-18T15:06:05;17.90;92.70
13798;DHT22;6970;51.340;3.240;2023-05-18T15:08:34;18.00;92.70
13798;DHT22;6970;51.340;3.240;2023-05-18T15:11:02;17.90;92.90
13798;DHT22;6970;51.340;3.240;2023-05-18T15:13:29;17.90;92.80
13798;DHT22;6970;51.340;3.240;2023-05-18T15:15:57;17.90;92.90
13798;DHT22;6970;51.340;3.240;2023-05-18T15:18:24;17.80;93.00
13798;DHT22;6970;51.340;3.240;2023-05-18T15:20:51;17.80;93.10
13798;DHT22;6970;51.340;3.240;2023-05-18T15:23:21;17.70;93.10
13798;DHT22;6970;51.340;3.240;2023-05-18T15:25:49;17.70;93.70
13798;DHT22;6970;51.340;3.240;2023-05-18T15:28:18;17.70;93.50
13798;DHT22;6970;51.340;3.240;2023-05-18T15:30:45;17.60;93.70
13798;DHT22;6970;51.340;3.240;2023-05-18T15:33:12;17.60;93.80
13798;DHT22;6970;51.340;3.240;2023-05-18T15:35:39;17.50;94.10
13798;DHT22;6970;51.340;3.240;2023-05-18T15:38:08;17.40;94.00
13798;DHT22;6970;51.340;3.240;2023-05-18T15:40:39;17.20;94.20
13798;DHT22;6970;51.340;3.240;2023-05-18T15:43:12;17.10;94.50
13798;DHT22;6970;51.340;3.240;2023-05-18T15:45:41;17.00;94.50
13798;DHT22;6970;51.340;3.240;2023-05-18T15:48:11;17.00;94.50
13798;DHT22;6970;51.340;3.240;2023-05-18T15:50:41;17.00;94.70
13798;DHT22;6970;51.340;3.240;2023-05-18T15:53:14;16.90;95.00
13798;DHT22;6970;51.340;3.240;2023-05-18T15:55:42;16.80;94.90
13798;DHT22;6970;51.340;3.240;2023-05-18T15:58:09;16.80;94.90
13798;DHT22;6970;51.340;3.240;2023-05-18T16:00:36;16.80;95.00
13798;DHT22;6970;51.340;3.240;2023-05-18T16:03:03;16.80;95.30
13798;DHT22;6970;51.340;3.240;2023-05-18T16:05:34;16.70;95.50
13798;DHT22;6970;51.340;3.240;2023-05-18T16:08:04;16.70;95.30
13798;DHT22;6970;51.340;3.240;2023-05-18T16:10:32;16.60;95.20
13798;DHT22;6970;51.340;3.240;2023-05-18T16:13:02;16.60;95.30
13798;DHT22;6970;51.340;3.240;2023-05-18T16:15:33;16.60;95.30
13798;DHT22;6970;51.340;3.240;2023-05-18T16:18:00;16.50;95.40
13798;DHT22;6970;51.340;3.240;2023-05-18T16:20:28;16.40;95.60
13798;DHT22;6970;51.340;3.240;2023-05-18T16:22:56;16.40;95.90